sensor_id;sensor_type;location;lat;lon;timestamp;P1;durP1;ratioP1;P2;durP2;ratioP2
25299;SDS011;13241;51.208;4.432;2023-06-22T00:01:20;3.15;;;2.00;;
25299;SDS011;13241;51.208;4.432;2023-06-22T00:03:48;6.88;;;2.50;;
25299;SDS011;13241;51.208;4.432;2023-06-22T00:06:15;3.53;;;2.38;;
25299;SDS011;13241;51.208;4.432;2023-06-22T00:08:42;8.88;;;2.60;;
25299;SDS011;13241;51.208;4.432;2023-06-22T00:11:09;4.15;;;2.00;;
25299;SDS011;13241;51.208;4.432;2023-06-22T00:13:37;6.50;;;2.28;;
25299;SDS011;13241;51.208;4.432;2023-06-22T00:16:05;6.03;;;1.98;;
25299;SDS011;13241;51.208;4.432;2023-06-22T00:18:50;7.28;;;2.33;;
25299;SDS011;13241;51.208;4.432;2023-06-22T00:21:17;2.95;;;1.60;;
25299;SDS011;13241;51.208;4.432;2023-06-22T00:23:46;3.55;;;2.00;;
25299;SDS011;13241;51.208;4.432;2023-06-22T00:26:14;3.83;;;2.13;;
25299;SDS011;13241;51.208;4.432;2023-06-22T00:28:41;3.10;;;2.03;;
25299;SDS011;13241;51.208;4.432;2023-06-22T00:31:08;4.07;;;1.67;;
25299;SDS011;13241;51.208;4.432;2023-06-22T00:33:35;2.63;;;1.75;;
25299;SDS011;13241;51.208;4.432;2023-06-22T00:36:04;3.38;;;1.95;;
25299;SDS011;13241;51.208;4.432;2023-06-22T00:38:34;5.03;;;1.95;;
25299;SDS011;13241;51.208;4.432;2023-06-22T00:41:00;3.63;;;1.75;;
25299;SDS011;13241;51.208;4.432;2023-06-22T00:43:27;2.85;;;2.00;;
25299;SDS011;13241;51.208;4.432;2023-06-22T00:45:55;3.90;;;2.10;;
25299;SDS011;13241;51.208;4.432;2023-06-22T00:48:23;3.03;;;1.75;;
25299;SDS011;13241;51.208;4.432;2023-06-22T00:50:50;4.82;;;2.22;;
25299;SDS011;13241;51.208;4.432;2023-06-22T00:53:19;3.50;;;2.15;;
25299;SDS011;13241;51.208;4.432;2023-06-22T00:55:46;6.90;;;2.33;;
25299;SDS011;13241;51.208;4.432;2023-06-22T00:58:18;6.15;;;2.55;;
25299;SDS011;13241;51.208;4.432;2023-06-22T01:00:48;4.78;;;2.45;;
25299;SDS011;13241;51.208;4.432;2023-06-22T01:03:15;8.55;;;3.03;;
25299;SDS011;13241;51.208;4.432;2023-06-22T01:05:43;4.18;;;2.35;;
25299;SDS011;13241;51.208;4.432;2023-06-22T01:13:39;3.60;;;2.00;;
25299;SDS011;13241;51.208;4.432;2023-06-22T01:16:23;5.72;;;2.60;;
25299;SDS011;13241;51.208;4.432;2023-06-22T01:18:52;3.00;;;2.10;;
25299;SDS011;13241;51.208;4.432;2023-06-22T01:21:24;3.20;;;2.15;;
25299;SDS011;13241;51.208;4.432;2023-06-22T01:24:01;4.28;;;2.22;;
25299;SDS011;13241;51.208;4.432;2023-06-22T01:29:51;4.10;;;2.28;;
25299;SDS011;13241;51.208;4.432;2023-06-22T01:32:30;4.95;;;2.65;;
25299;SDS011;13241;51.208;4.432;2023-06-22T01:35:00;7.53;;;2.92;;
25299;SDS011;13241;51.208;4.432;2023-06-22T01:37:30;5.75;;;1.85;;
25299;SDS011;13241;51.208;4.432;2023-06-22T01:40:00;4.90;;;3.13;;
25299;SDS011;13241;51.208;4.432;2023-06-22T01:42:30;4.00;;;2.00;;
25299;SDS011;13241;51.208;4.432;2023-06-22T01:44:59;4.45;;;2.10;;
25299;SDS011;13241;51.208;4.432;2023-06-22T01:47:26;7.28;;;2.33;;
25299;SDS011;13241;51.208;4.432;2023-06-22T01:49:54;4.05;;;2.35;;
25299;SDS011;13241;51.208;4.432;2023-06-22T01:52:21;2.85;;;1.80;;
25299;SDS011;13241;51.208;4.432;2023-06-22T01:54:48;3.72;;;1.88;;
25299;SDS011;13241;51.208;4.432;2023-06-22T01:57:15;5.75;;;2.08;;
25299;SDS011;13241;51.208;4.432;2023-06-22T02:02:24;4.25;;;1.75;;
25299;SDS011;13241;51.208;4.432;2023-06-22T02:04:57;4.45;;;2.08;;
25299;SDS011;13241;51.208;4.432;2023-06-22T02:07:31;2.92;;;2.00;;
25299;SDS011;13241;51.208;4.432;2023-06-22T02:10:02;6.63;;;1.98;;
25299;SDS011;13241;51.208;4.432;2023-06-22T02:12:32;3.53;;;2.10;;
25299;SDS011;13241;51.208;4.432;2023-06-22T02:15:02;3.25;;;2.20;;
25299;SDS011;13241;51.208;4.432;2023-06-22T02:17:29;5.93;;;2.42;;
25299;SDS011;13241;51.208;4.432;2023-06-22T02:20:01;5.00;;;2.30;;
25299;SDS011;13241;51.208;4.432;2023-06-22T02:22:34;2.83;;;1.95;;
25299;SDS011;13241;51.208;4.432;2023-06-22T02:25:01;4.25;;;2.35;;
25299;SDS011;13241;51.208;4.432;2023-06-22T02:27:29;6.30;;;2.70;;
25299;SDS011;13241;51.208;4.432;2023-06-22T02:29:56;4.22;;;2.13;;
25299;SDS011;13241;51.208;4.432;2023-06-22T02:32:23;7.18;;;2.60;;
25299;SDS011;13241;51.208;4.432;2023-06-22T02:34:50;4.70;;;2.22;;
25299;SDS011;13241;51.208;4.432;2023-06-22T02:37:17;6.85;;;2.42;;
25299;SDS011;13241;51.208;4.432;2023-06-22T02:39:44;10.73;;;3.35;;
25299;SDS011;13241;51.208;4.432;2023-06-22T02:42:11;5.47;;;2.60;;
25299;SDS011;13241;51.208;4.432;2023-06-22T02:44:38;4.00;;;2.67;;
25299;SDS011;13241;51.208;4.432;2023-06-22T02:47:05;6.68;;;3.22;;
25299;SDS011;13241;51.208;4.432;2023-06-22T02:49:32;6.03;;;3.22;;
25299;SDS011;13241;51.208;4.432;2023-06-22T02:51:59;5.13;;;2.67;;
25299;SDS011;13241;51.208;4.432;2023-06-22T02:54:26;3.90;;;2.47;;
25299;SDS011;13241;51.208;4.432;2023-06-22T02:56:53;6.95;;;2.90;;
25299;SDS011;13241;51.208;4.432;2023-06-22T02:59:21;7.15;;;3.08;;
25299;SDS011;13241;51.208;4.432;2023-06-22T03:01:59;5.97;;;2.90;;
25299;SDS011;13241;51.208;4.432;2023-06-22T03:04:29;7.50;;;3.47;;
25299;SDS011;13241;51.208;4.432;2023-06-22T03:06:57;9.32;;;3.30;;
25299;SDS011;13241;51.208;4.432;2023-06-22T03:09:29;9.85;;;3.30;;
25299;SDS011;13241;51.208;4.432;2023-06-22T03:11:57;6.10;;;3.20;;
25299;SDS011;13241;51.208;4.432;2023-06-22T03:14:29;7.45;;;3.35;;
25299;SDS011;13241;51.208;4.432;2023-06-22T03:16:56;8.82;;;3.97;;
25299;SDS011;13241;51.208;4.432;2023-06-22T03:19:29;8.82;;;4.50;;
25299;SDS011;13241;51.208;4.432;2023-06-22T03:21:59;9.93;;;4.05;;
25299;SDS011;13241;51.208;4.432;2023-06-22T03:24:26;7.88;;;3.85;;
25299;SDS011;13241;51.208;4.432;2023-06-22T03:26:56;8.18;;;4.13;;
25299;SDS011;13241;51.208;4.432;2023-06-22T03:29:23;7.55;;;4.22;;
25299;SDS011;13241;51.208;4.432;2023-06-22T03:31:51;9.25;;;4.53;;
25299;SDS011;13241;51.208;4.432;2023-06-22T03:34:18;9.18;;;4.95;;
25299;SDS011;13241;51.208;4.432;2023-06-22T03:36:45;9.23;;;4.78;;
25299;SDS011;13241;51.208;4.432;2023-06-22T03:39:12;10.80;;;5.28;;
25299;SDS011;13241;51.208;4.432;2023-06-22T03:41:40;10.23;;;5.10;;
25299;SDS011;13241;51.208;4.432;2023-06-22T03:44:07;13.98;;;5.13;;
25299;SDS011;13241;51.208;4.432;2023-06-22T03:46:38;12.98;;;5.20;;
25299;SDS011;13241;51.208;4.432;2023-06-22T03:49:05;9.68;;;5.47;;
25299;SDS011;13241;51.208;4.432;2023-06-22T03:51:32;10.77;;;5.53;;
25299;SDS011;13241;51.208;4.432;2023-06-22T03:53:59;13.20;;;4.97;;
25299;SDS011;13241;51.208;4.432;2023-06-22T03:56:26;10.65;;;5.57;;
25299;SDS011;13241;51.208;4.432;2023-06-22T03:58:53;10.48;;;6.07;;
25299;SDS011;13241;51.208;4.432;2023-06-22T04:01:20;10.43;;;5.22;;
25299;SDS011;13241;51.208;4.432;2023-06-22T04:03:47;12.30;;;5.90;;
25299;SDS011;13241;51.208;4.432;2023-06-22T04:06:16;11.00;;;5.57;;
25299;SDS011;13241;51.208;4.432;2023-06-22T04:08:44;12.10;;;6.20;;
25299;SDS011;13241;51.208;4.432;2023-06-22T04:11:14;11.48;;;5.82;;
25299;SDS011;13241;51.208;4.432;2023-06-22T04:13:41;13.80;;;6.78;;
25299;SDS011;13241;51.208;4.432;2023-06-22T04:16:08;15.25;;;5.57;;
25299;SDS011;13241;51.208;4.432;2023-06-22T04:18:35;14.38;;;6.82;;
25299;SDS011;13241;51.208;4.432;2023-06-22T04:21:02;11.73;;;6.25;;
25299;SDS011;13241;51.208;4.432;2023-06-22T04:23:29;14.45;;;5.88;;
25299;SDS011;13241;51.208;4.432;2023-06-22T04:25:55;14.60;;;6.68;;
25299;SDS011;13241;51.208;4.432;2023-06-22T04:28:22;14.18;;;6.43;;
25299;SDS011;13241;51.208;4.432;2023-06-22T04:30:53;16.17;;;6.75;;
25299;SDS011;13241;51.208;4.432;2023-06-22T04:33:24;10.13;;;6.07;;
25299;SDS011;13241;51.208;4.432;2023-06-22T04:35:51;18.02;;;6.22;;
25299;SDS011;13241;51.208;4.432;2023-06-22T04:38:18;13.38;;;5.90;;
25299;SDS011;13241;51.208;4.432;2023-06-22T04:40:44;13.27;;;6.05;;
25299;SDS011;13241;51.208;4.432;2023-06-22T04:43:11;10.30;;;5.82;;
25299;SDS011;13241;51.208;4.432;2023-06-22T04:45:38;14.25;;;5.95;;
25299;SDS011;13241;51.208;4.432;2023-06-22T04:48:05;15.32;;;6.53;;
25299;SDS011;13241;51.208;4.432;2023-06-22T04:50:32;10.55;;;5.80;;
25299;SDS011;13241;51.208;4.432;2023-06-22T04:52:59;12.68;;;6.53;;
25299;SDS011;13241;51.208;4.432;2023-06-22T04:55:26;12.00;;;6.72;;
25299;SDS011;13241;51.208;4.432;2023-06-22T04:57:53;14.88;;;6.70;;
25299;SDS011;13241;51.208;4.432;2023-06-22T05:00:20;11.05;;;6.28;;
25299;SDS011;13241;51.208;4.432;2023-06-22T05:02:49;19.70;;;7.97;;
25299;SDS011;13241;51.208;4.432;2023-06-22T05:05:16;10.18;;;6.43;;
25299;SDS011;13241;51.208;4.432;2023-06-22T05:07:44;14.75;;;7.70;;
25299;SDS011;13241;51.208;4.432;2023-06-22T05:10:14;13.10;;;7.68;;
25299;SDS011;13241;51.208;4.432;2023-06-22T05:12:41;11.13;;;7.10;;
25299;SDS011;13241;51.208;4.432;2023-06-22T05:15:09;11.80;;;7.15;;
25299;SDS011;13241;51.208;4.432;2023-06-22T05:17:36;10.95;;;6.80;;
25299;SDS011;13241;51.208;4.432;2023-06-22T05:20:10;27.33;;;7.32;;
25299;SDS011;13241;51.208;4.432;2023-06-22T05:22:38;17.67;;;7.25;;
25299;SDS011;13241;51.208;4.432;2023-06-22T05:25:07;14.68;;;7.15;;
25299;SDS011;13241;51.208;4.432;2023-06-22T05:27:35;13.00;;;7.15;;
25299;SDS011;13241;51.208;4.432;2023-06-22T05:30:06;14.27;;;7.28;;
25299;SDS011;13241;51.208;4.432;2023-06-22T05:32:35;14.80;;;7.63;;
25299;SDS011;13241;51.208;4.432;2023-06-22T05:35:03;22.02;;;7.28;;
25299;SDS011;13241;51.208;4.432;2023-06-22T05:37:30;12.73;;;7.13;;
25299;SDS011;13241;51.208;4.432;2023-06-22T05:39:57;13.80;;;7.78;;
25299;SDS011;13241;51.208;4.432;2023-06-22T05:42:24;10.48;;;4.05;;
25299;SDS011;13241;51.208;4.432;2023-06-22T05:44:52;12.38;;;6.45;;
25299;SDS011;13241;51.208;4.432;2023-06-22T05:47:19;13.27;;;5.60;;
25299;SDS011;13241;51.208;4.432;2023-06-22T05:49:47;16.90;;;7.55;;
25299;SDS011;13241;51.208;4.432;2023-06-22T05:52:13;12.85;;;6.68;;
25299;SDS011;13241;51.208;4.432;2023-06-22T05:54:40;10.65;;;5.72;;
25299;SDS011;13241;51.208;4.432;2023-06-22T05:57:08;12.52;;;6.55;;
25299;SDS011;13241;51.208;4.432;2023-06-22T05:59:34;13.82;;;6.72;;
25299;SDS011;13241;51.208;4.432;2023-06-22T06:02:01;12.35;;;6.15;;
25299;SDS011;13241;51.208;4.432;2023-06-22T06:04:29;8.57;;;5.10;;
25299;SDS011;13241;51.208;4.432;2023-06-22T06:06:56;12.75;;;6.25;;
25299;SDS011;13241;51.208;4.432;2023-06-22T06:09:23;10.25;;;6.00;;
25299;SDS011;13241;51.208;4.432;2023-06-22T06:11:50;11.52;;;5.53;;
25299;SDS011;13241;51.208;4.432;2023-06-22T06:14:17;10.10;;;6.50;;
25299;SDS011;13241;51.208;4.432;2023-06-22T06:16:44;17.33;;;7.05;;
25299;SDS011;13241;51.208;4.432;2023-06-22T06:19:11;14.25;;;6.68;;
25299;SDS011;13241;51.208;4.432;2023-06-22T06:21:38;10.63;;;6.95;;
25299;SDS011;13241;51.208;4.432;2023-06-22T06:24:05;13.02;;;7.28;;
25299;SDS011;13241;51.208;4.432;2023-06-22T06:26:32;14.55;;;7.13;;
25299;SDS011;13241;51.208;4.432;2023-06-22T06:29:01;16.40;;;8.07;;
25299;SDS011;13241;51.208;4.432;2023-06-22T06:31:28;12.07;;;6.68;;
25299;SDS011;13241;51.208;4.432;2023-06-22T06:33:55;14.98;;;7.97;;
25299;SDS011;13241;51.208;4.432;2023-06-22T06:36:22;14.98;;;6.90;;
25299;SDS011;13241;51.208;4.432;2023-06-22T06:38:50;15.25;;;7.35;;
25299;SDS011;13241;51.208;4.432;2023-06-22T06:41:17;12.65;;;7.10;;
25299;SDS011;13241;51.208;4.432;2023-06-22T06:43:43;15.40;;;7.40;;
25299;SDS011;13241;51.208;4.432;2023-06-22T06:46:10;16.02;;;6.72;;
25299;SDS011;13241;51.208;4.432;2023-06-22T06:48:37;12.27;;;7.18;;
25299;SDS011;13241;51.208;4.432;2023-06-22T06:51:06;12.52;;;7.07;;
25299;SDS011;13241;51.208;4.432;2023-06-22T06:53:36;15.30;;;8.02;;
25299;SDS011;13241;51.208;4.432;2023-06-22T06:56:04;14.93;;;7.80;;
25299;SDS011;13241;51.208;4.432;2023-06-22T06:58:31;15.80;;;7.32;;
25299;SDS011;13241;51.208;4.432;2023-06-22T07:00:58;9.98;;;6.38;;
25299;SDS011;13241;51.208;4.432;2023-06-22T07:03:25;17.00;;;8.10;;
25299;SDS011;13241;51.208;4.432;2023-06-22T07:05:52;13.93;;;7.30;;
25299;SDS011;13241;51.208;4.432;2023-06-22T07:08:19;15.93;;;7.82;;
25299;SDS011;13241;51.208;4.432;2023-06-22T07:10:46;15.32;;;7.50;;
25299;SDS011;13241;51.208;4.432;2023-06-22T07:13:13;10.73;;;6.95;;
25299;SDS011;13241;51.208;4.432;2023-06-22T07:15:40;13.10;;;7.32;;
25299;SDS011;13241;51.208;4.432;2023-06-22T07:18:07;13.50;;;7.63;;
25299;SDS011;13241;51.208;4.432;2023-06-22T07:20:34;11.40;;;6.93;;
25299;SDS011;13241;51.208;4.432;2023-06-22T07:23:01;13.55;;;7.30;;
25299;SDS011;13241;51.208;4.432;2023-06-22T07:25:28;14.73;;;8.10;;
25299;SDS011;13241;51.208;4.432;2023-06-22T07:27:58;17.05;;;8.20;;
25299;SDS011;13241;51.208;4.432;2023-06-22T07:30:25;15.80;;;7.75;;
25299;SDS011;13241;51.208;4.432;2023-06-22T07:32:53;13.00;;;7.70;;
25299;SDS011;13241;51.208;4.432;2023-06-22T07:35:21;18.23;;;7.88;;
25299;SDS011;13241;51.208;4.432;2023-06-22T07:37:47;17.27;;;7.90;;
25299;SDS011;13241;51.208;4.432;2023-06-22T07:40:14;23.27;;;8.88;;
25299;SDS011;13241;51.208;4.432;2023-06-22T07:42:41;15.73;;;7.30;;
25299;SDS011;13241;51.208;4.432;2023-06-22T07:45:08;14.63;;;7.63;;
25299;SDS011;13241;51.208;4.432;2023-06-22T07:47:35;14.93;;;7.93;;
25299;SDS011;13241;51.208;4.432;2023-06-22T07:50:03;13.65;;;7.60;;
25299;SDS011;13241;51.208;4.432;2023-06-22T07:52:30;15.10;;;7.40;;
25299;SDS011;13241;51.208;4.432;2023-06-22T07:54:57;14.00;;;7.25;;
25299;SDS011;13241;51.208;4.432;2023-06-22T07:57:24;27.15;;;8.13;;
25299;SDS011;13241;51.208;4.432;2023-06-22T08:00:00;14.00;;;7.85;;
25299;SDS011;13241;51.208;4.432;2023-06-22T08:02:38;15.05;;;8.02;;
25299;SDS011;13241;51.208;4.432;2023-06-22T08:05:06;16.63;;;7.72;;
25299;SDS011;13241;51.208;4.432;2023-06-22T08:07:46;12.60;;;7.82;;
25299;SDS011;13241;51.208;4.432;2023-06-22T08:10:15;18.52;;;7.95;;
25299;SDS011;13241;51.208;4.432;2023-06-22T08:12:42;15.68;;;7.70;;
25299;SDS011;13241;51.208;4.432;2023-06-22T08:15:09;13.45;;;8.02;;
25299;SDS011;13241;51.208;4.432;2023-06-22T08:17:39;14.25;;;8.25;;
25299;SDS011;13241;51.208;4.432;2023-06-22T08:20:07;14.45;;;7.18;;
25299;SDS011;13241;51.208;4.432;2023-06-22T08:22:41;20.45;;;7.97;;
25299;SDS011;13241;51.208;4.432;2023-06-22T08:25:10;17.38;;;8.15;;
25299;SDS011;13241;51.208;4.432;2023-06-22T08:27:37;15.63;;;8.90;;
25299;SDS011;13241;51.208;4.432;2023-06-22T08:30:04;13.93;;;8.50;;
25299;SDS011;13241;51.208;4.432;2023-06-22T08:32:32;15.88;;;9.18;;
25299;SDS011;13241;51.208;4.432;2023-06-22T08:35:00;16.63;;;8.15;;
25299;SDS011;13241;51.208;4.432;2023-06-22T08:37:27;14.68;;;7.88;;
25299;SDS011;13241;51.208;4.432;2023-06-22T08:40:03;15.27;;;8.90;;
25299;SDS011;13241;51.208;4.432;2023-06-22T08:42:33;13.90;;;7.28;;
25299;SDS011;13241;51.208;4.432;2023-06-22T08:45:00;18.02;;;8.18;;
25299;SDS011;13241;51.208;4.432;2023-06-22T08:47:28;12.15;;;7.80;;
25299;SDS011;13241;51.208;4.432;2023-06-22T08:49:55;16.38;;;7.50;;
25299;SDS011;13241;51.208;4.432;2023-06-22T08:52:23;16.23;;;8.52;;
25299;SDS011;13241;51.208;4.432;2023-06-22T08:54:51;14.57;;;8.32;;
25299;SDS011;13241;51.208;4.432;2023-06-22T08:57:18;14.07;;;7.78;;
25299;SDS011;13241;51.208;4.432;2023-06-22T08:59:45;15.63;;;9.13;;
25299;SDS011;13241;51.208;4.432;2023-06-22T09:02:12;18.33;;;8.38;;
25299;SDS011;13241;51.208;4.432;2023-06-22T09:04:39;13.68;;;7.75;;
25299;SDS011;13241;51.208;4.432;2023-06-22T09:07:06;23.60;;;9.30;;
25299;SDS011;13241;51.208;4.432;2023-06-22T09:09:33;13.48;;;8.65;;
25299;SDS011;13241;51.208;4.432;2023-06-22T09:11:59;18.38;;;8.90;;
25299;SDS011;13241;51.208;4.432;2023-06-22T09:14:26;14.48;;;7.90;;
25299;SDS011;13241;51.208;4.432;2023-06-22T09:16:53;15.95;;;7.72;;
25299;SDS011;13241;51.208;4.432;2023-06-22T09:19:20;13.25;;;7.65;;
25299;SDS011;13241;51.208;4.432;2023-06-22T09:21:47;16.90;;;8.93;;
25299;SDS011;13241;51.208;4.432;2023-06-22T09:24:18;18.83;;;9.10;;
25299;SDS011;13241;51.208;4.432;2023-06-22T09:26:45;13.95;;;8.23;;
25299;SDS011;13241;51.208;4.432;2023-06-22T09:29:11;11.43;;;7.32;;
25299;SDS011;13241;51.208;4.432;2023-06-22T09:31:38;14.35;;;8.50;;
25299;SDS011;13241;51.208;4.432;2023-06-22T09:34:06;15.48;;;7.82;;
25299;SDS011;13241;51.208;4.432;2023-06-22T09:36:33;13.40;;;8.18;;
25299;SDS011;13241;51.208;4.432;2023-06-22T09:38:59;25.88;;;8.68;;
25299;SDS011;13241;51.208;4.432;2023-06-22T09:41:32;11.68;;;7.88;;
25299;SDS011;13241;51.208;4.432;2023-06-22T09:43:58;15.90;;;8.38;;
25299;SDS011;13241;51.208;4.432;2023-06-22T09:46:25;15.85;;;8.18;;
25299;SDS011;13241;51.208;4.432;2023-06-22T09:48:52;18.17;;;8.13;;
25299;SDS011;13241;51.208;4.432;2023-06-22T09:51:19;18.15;;;8.40;;
25299;SDS011;13241;51.208;4.432;2023-06-22T09:53:48;11.75;;;7.57;;
25299;SDS011;13241;51.208;4.432;2023-06-22T09:56:15;10.55;;;7.07;;
25299;SDS011;13241;51.208;4.432;2023-06-22T09:58:42;15.77;;;7.38;;
25299;SDS011;13241;51.208;4.432;2023-06-22T10:01:10;15.02;;;7.60;;
25299;SDS011;13241;51.208;4.432;2023-06-22T10:03:37;11.63;;;6.90;;
25299;SDS011;13241;51.208;4.432;2023-06-22T10:06:04;12.68;;;7.13;;
25299;SDS011;13241;51.208;4.432;2023-06-22T10:08:31;11.52;;;7.00;;
25299;SDS011;13241;51.208;4.432;2023-06-22T10:10:58;16.77;;;7.75;;
25299;SDS011;13241;51.208;4.432;2023-06-22T10:13:26;11.60;;;7.25;;
25299;SDS011;13241;51.208;4.432;2023-06-22T10:15:53;16.17;;;7.15;;
25299;SDS011;13241;51.208;4.432;2023-06-22T10:18:21;15.50;;;8.52;;
25299;SDS011;13241;51.208;4.432;2023-06-22T10:20:48;12.60;;;7.07;;
25299;SDS011;13241;51.208;4.432;2023-06-22T10:23:19;10.85;;;7.22;;
25299;SDS011;13241;51.208;4.432;2023-06-22T10:25:46;11.77;;;7.03;;
25299;SDS011;13241;51.208;4.432;2023-06-22T10:28:14;13.15;;;7.40;;
25299;SDS011;13241;51.208;4.432;2023-06-22T10:30:42;14.40;;;7.53;;
25299;SDS011;13241;51.208;4.432;2023-06-22T10:33:10;13.50;;;6.97;;
25299;SDS011;13241;51.208;4.432;2023-06-22T10:35:37;12.15;;;7.60;;
25299;SDS011;13241;51.208;4.432;2023-06-22T10:38:05;12.40;;;7.10;;
25299;SDS011;13241;51.208;4.432;2023-06-22T10:40:32;14.38;;;7.05;;
25299;SDS011;13241;51.208;4.432;2023-06-22T10:42:59;9.50;;;6.03;;
25299;SDS011;13241;51.208;4.432;2023-06-22T10:45:26;15.35;;;7.25;;
25299;SDS011;13241;51.208;4.432;2023-06-22T10:47:54;18.38;;;7.43;;
25299;SDS011;13241;51.208;4.432;2023-06-22T10:50:22;18.98;;;8.48;;
25299;SDS011;13241;51.208;4.432;2023-06-22T10:52:50;14.07;;;6.88;;
25299;SDS011;13241;51.208;4.432;2023-06-22T10:55:17;16.95;;;7.32;;
25299;SDS011;13241;51.208;4.432;2023-06-22T10:57:44;14.05;;;7.50;;
25299;SDS011;13241;51.208;4.432;2023-06-22T11:00:13;17.23;;;7.97;;
25299;SDS011;13241;51.208;4.432;2023-06-22T11:02:41;17.55;;;7.47;;
25299;SDS011;13241;51.208;4.432;2023-06-22T11:05:08;14.63;;;7.30;;
25299;SDS011;13241;51.208;4.432;2023-06-22T11:07:36;11.10;;;6.80;;
25299;SDS011;13241;51.208;4.432;2023-06-22T11:12:36;17.45;;;7.57;;
25299;SDS011;13241;51.208;4.432;2023-06-22T11:15:03;15.45;;;8.98;;
25299;SDS011;13241;51.208;4.432;2023-06-22T11:17:31;14.93;;;7.15;;
25299;SDS011;13241;51.208;4.432;2023-06-22T11:19:57;12.85;;;6.68;;
25299;SDS011;13241;51.208;4.432;2023-06-22T11:22:26;12.93;;;6.40;;
25299;SDS011;13241;51.208;4.432;2023-06-22T11:24:53;15.90;;;7.45;;
25299;SDS011;13241;51.208;4.432;2023-06-22T11:27:20;13.18;;;6.78;;
25299;SDS011;13241;51.208;4.432;2023-06-22T11:29:47;14.05;;;7.60;;
25299;SDS011;13241;51.208;4.432;2023-06-22T11:32:14;12.88;;;7.50;;
25299;SDS011;13241;51.208;4.432;2023-06-22T11:34:40;12.88;;;7.32;;
25299;SDS011;13241;51.208;4.432;2023-06-22T11:37:07;15.13;;;7.13;;
25299;SDS011;13241;51.208;4.432;2023-06-22T11:39:34;15.38;;;7.93;;
25299;SDS011;13241;51.208;4.432;2023-06-22T11:44:35;11.65;;;6.97;;
25299;SDS011;13241;51.208;4.432;2023-06-22T11:47:02;14.73;;;7.15;;
25299;SDS011;13241;51.208;4.432;2023-06-22T11:49:30;15.07;;;8.23;;
25299;SDS011;13241;51.208;4.432;2023-06-22T11:51:58;15.18;;;8.63;;
25299;SDS011;13241;51.208;4.432;2023-06-22T11:54:25;15.43;;;9.15;;
25299;SDS011;13241;51.208;4.432;2023-06-22T11:56:52;17.00;;;8.05;;
25299;SDS011;13241;51.208;4.432;2023-06-22T11:59:19;15.10;;;8.40;;
25299;SDS011;13241;51.208;4.432;2023-06-22T12:01:48;15.45;;;9.05;;
25299;SDS011;13241;51.208;4.432;2023-06-22T12:04:17;16.00;;;8.85;;
25299;SDS011;13241;51.208;4.432;2023-06-22T12:06:44;17.23;;;8.93;;
25299;SDS011;13241;51.208;4.432;2023-06-22T12:09:11;16.77;;;9.30;;
25299;SDS011;13241;51.208;4.432;2023-06-22T12:11:40;14.25;;;9.10;;
25299;SDS011;13241;51.208;4.432;2023-06-22T12:14:06;16.17;;;9.23;;
25299;SDS011;13241;51.208;4.432;2023-06-22T12:16:33;12.32;;;7.20;;
25299;SDS011;13241;51.208;4.432;2023-06-22T12:19:00;16.98;;;8.43;;
25299;SDS011;13241;51.208;4.432;2023-06-22T12:21:27;14.32;;;8.25;;
25299;SDS011;13241;51.208;4.432;2023-06-22T12:23:55;13.85;;;7.57;;
25299;SDS011;13241;51.208;4.432;2023-06-22T12:26:22;10.32;;;7.50;;
25299;SDS011;13241;51.208;4.432;2023-06-22T12:28:49;15.63;;;7.75;;
25299;SDS011;13241;51.208;4.432;2023-06-22T12:31:16;16.92;;;7.90;;
25299;SDS011;13241;51.208;4.432;2023-06-22T12:33:44;13.45;;;7.75;;
25299;SDS011;13241;51.208;4.432;2023-06-22T12:36:11;16.75;;;8.70;;
25299;SDS011;13241;51.208;4.432;2023-06-22T12:38:38;15.55;;;7.75;;
25299;SDS011;13241;51.208;4.432;2023-06-22T12:41:05;17.17;;;8.48;;
25299;SDS011;13241;51.208;4.432;2023-06-22T12:43:32;10.35;;;7.63;;
25299;SDS011;13241;51.208;4.432;2023-06-22T12:45:58;14.13;;;8.52;;
25299;SDS011;13241;51.208;4.432;2023-06-22T12:48:26;16.20;;;9.35;;
25299;SDS011;13241;51.208;4.432;2023-06-22T12:50:53;12.68;;;7.63;;
25299;SDS011;13241;51.208;4.432;2023-06-22T12:53:21;16.20;;;9.27;;
25299;SDS011;13241;51.208;4.432;2023-06-22T12:55:49;14.35;;;8.75;;
25299;SDS011;13241;51.208;4.432;2023-06-22T12:58:16;15.70;;;9.18;;
25299;SDS011;13241;51.208;4.432;2023-06-22T13:00:43;14.15;;;8.68;;
25299;SDS011;13241;51.208;4.432;2023-06-22T13:03:10;18.63;;;9.43;;
25299;SDS011;13241;51.208;4.432;2023-06-22T13:05:37;19.27;;;10.57;;
25299;SDS011;13241;51.208;4.432;2023-06-22T13:08:04;13.73;;;8.32;;
25299;SDS011;13241;51.208;4.432;2023-06-22T13:10:31;18.42;;;8.60;;
25299;SDS011;13241;51.208;4.432;2023-06-22T13:13:00;18.50;;;9.32;;
25299;SDS011;13241;51.208;4.432;2023-06-22T13:15:27;19.52;;;9.73;;
25299;SDS011;13241;51.208;4.432;2023-06-22T13:17:56;18.65;;;9.38;;
25299;SDS011;13241;51.208;4.432;2023-06-22T13:20:24;14.48;;;8.82;;
25299;SDS011;13241;51.208;4.432;2023-06-22T13:22:51;17.83;;;9.35;;
25299;SDS011;13241;51.208;4.432;2023-06-22T13:25:18;19.85;;;10.60;;
25299;SDS011;13241;51.208;4.432;2023-06-22T13:27:47;20.52;;;11.15;;
25299;SDS011;13241;51.208;4.432;2023-06-22T13:30:14;15.82;;;9.80;;
25299;SDS011;13241;51.208;4.432;2023-06-22T13:32:41;22.65;;;11.55;;
25299;SDS011;13241;51.208;4.432;2023-06-22T13:35:09;19.25;;;10.38;;
25299;SDS011;13241;51.208;4.432;2023-06-22T13:37:36;18.92;;;11.10;;
25299;SDS011;13241;51.208;4.432;2023-06-22T13:40:04;23.25;;;11.73;;
25299;SDS011;13241;51.208;4.432;2023-06-22T13:42:33;17.42;;;10.30;;
25299;SDS011;13241;51.208;4.432;2023-06-22T13:45:00;18.10;;;10.18;;
25299;SDS011;13241;51.208;4.432;2023-06-22T13:47:27;23.35;;;11.25;;
25299;SDS011;13241;51.208;4.432;2023-06-22T13:49:57;21.98;;;11.45;;
25299;SDS011;13241;51.208;4.432;2023-06-22T13:52:24;20.90;;;11.05;;
25299;SDS011;13241;51.208;4.432;2023-06-22T13:54:51;17.35;;;10.55;;
25299;SDS011;13241;51.208;4.432;2023-06-22T13:57:18;21.50;;;12.18;;
25299;SDS011;13241;51.208;4.432;2023-06-22T13:59:45;19.83;;;11.00;;
25299;SDS011;13241;51.208;4.432;2023-06-22T14:02:12;24.00;;;12.70;;
25299;SDS011;13241;51.208;4.432;2023-06-22T14:04:39;23.08;;;13.43;;
25299;SDS011;13241;51.208;4.432;2023-06-22T14:07:06;22.48;;;13.00;;
25299;SDS011;13241;51.208;4.432;2023-06-22T14:09:33;21.42;;;11.82;;
25299;SDS011;13241;51.208;4.432;2023-06-22T14:12:03;23.13;;;12.63;;
25299;SDS011;13241;51.208;4.432;2023-06-22T14:14:32;25.33;;;14.05;;
25299;SDS011;13241;51.208;4.432;2023-06-22T14:16:59;24.52;;;12.77;;
25299;SDS011;13241;51.208;4.432;2023-06-22T14:19:26;25.33;;;12.75;;
25299;SDS011;13241;51.208;4.432;2023-06-22T14:21:53;18.77;;;10.68;;
25299;SDS011;13241;51.208;4.432;2023-06-22T14:24:20;0.63;;;0.63;;
25299;SDS011;13241;51.208;4.432;2023-06-22T14:26:50;1.55;;;1.45;;
25299;SDS011;13241;51.208;4.432;2023-06-22T14:29:17;0.57;;;0.57;;
25299;SDS011;13241;51.208;4.432;2023-06-22T14:31:44;2.47;;;1.85;;
25299;SDS011;13241;51.208;4.432;2023-06-22T14:34:12;0.85;;;0.85;;
25299;SDS011;13241;51.208;4.432;2023-06-22T14:36:39;0.80;;;0.80;;
25299;SDS011;13241;51.208;4.432;2023-06-22T14:39:06;1.20;;;1.20;;
25299;SDS011;13241;51.208;4.432;2023-06-22T14:41:33;0.10;;;0.10;;
25299;SDS011;13241;51.208;4.432;2023-06-22T14:44:00;0.10;;;0.10;;
25299;SDS011;13241;51.208;4.432;2023-06-22T14:46:27;1.30;;;1.20;;
25299;SDS011;13241;51.208;4.432;2023-06-22T14:48:54;0.45;;;0.45;;
25299;SDS011;13241;51.208;4.432;2023-06-22T14:51:21;0.30;;;0.30;;
25299;SDS011;13241;51.208;4.432;2023-06-22T14:53:48;1.42;;;1.33;;
25299;SDS011;13241;51.208;4.432;2023-06-22T14:56:15;0.22;;;0.22;;
25299;SDS011;13241;51.208;4.432;2023-06-22T14:58:42;0.55;;;0.55;;